Time;durP1;ratioP1;P1;durP2;ratioP2;P2;SDS_P1;SDS_P2;PMS_P1;PMS_P2;Temp;Humidity;BMP_temperature;BMP_pressure;BME280_temperature;BME280_humidity;BME280_pressure;Samples;Min_cycle;Max_cycle;Signal;HPM_P1;HPM_P2
2022/04/23 00:01:10;;;;;;;23.27;13.07;;;6.80;78.50;;;;;;5115257;27;20395;-64
2022/04/23 00:03:35;;;;;;;19.90;13.33;;;6.80;77.80;;;;;;5113398;28;20928;-66
2022/04/23 00:06:02;;;;;;;17.53;12.10;;;6.90;79.60;;;;;;5114418;28;20192;-66
2022/04/23 00:08:28;;;;;;;20.93;13.90;;;6.90;86.10;;;;;;5107168;28;20169;-71
2022/04/23 00:10:53;;;;;;;21.80;14.77;;;6.90;78.90;;;;;;5094214;28;20761;-63
2022/04/23 00:13:19;;;;;;;24.33;13.53;;;6.90;86.10;;;;;;5098506;28;20694;-65
2022/04/23 00:15:45;;;;;;;17.23;12.60;;;7.00;89.10;;;;;;5113705;28;20697;-67
2022/04/23 00:18:11;;;;;;;18.67;13.33;;;7.00;93.70;;;;;;5111037;28;20420;-65
2022/04/23 00:20:38;;;;;;;20.20;12.20;;;6.90;82.30;;;;;;5093564;28;20547;-63
2022/04/23 00:23:05;;;;;;;16.37;11.60;;;6.90;83.50;;;;;;5094163;28;20196;-68
2022/04/23 00:25:31;;;;;;;19.87;12.70;;;6.90;80.60;;;;;;5114782;28;20437;-64
2022/04/23 00:27:58;;;;;;;19.90;13.10;;;6.90;79.00;;;;;;5112990;28;20450;-66
2022/04/23 00:30:23;;;;;;;20.07;13.77;;;6.80;78.80;;;;;;5101518;28;20434;-66
2022/04/23 00:32:49;;;;;;;20.27;13.80;;;6.80;78.00;;;;;;5096679;28;20440;-63
2022/04/23 00:35:18;;;;;;;22.10;13.43;;;6.80;80.00;;;;;;5113891;28;20406;-66
2022/04/23 00:37:45;;;;;;;17.90;12.53;;;6.80;84.80;;;;;;5112670;28;20659;-66
2022/04/23 00:40:17;;;;;;;19.73;14.17;;;6.80;80.90;;;;;;5091812;28;20451;-66
2022/04/23 00:42:46;;;;;;;17.77;13.90;;;6.90;90.00;;;;;;5094231;28;20447;-65
2022/04/23 00:45:12;;;;;;;24.20;12.60;;;6.80;81.90;;;;;;5114364;28;20395;-65
2022/04/23 00:47:38;;;;;;;21.33;13.40;;;6.80;78.80;;;;;;5110802;28;20438;-67
2022/04/23 00:50:04;;;;;;;23.60;14.37;;;6.80;88.60;;;;;;5100084;28;20241;-63
2022/04/23 00:52:32;;;;;;;19.33;13.60;;;6.80;78.70;;;;;;5112280;28;20430;-66
2022/04/23 00:55:05;;;;;;;28.43;13.80;;;6.70;78.70;;;;;;5093922;28;20408;-66
2022/04/23 00:57:35;;;;;;;19.60;12.37;;;6.70;89.50;;;;;;5094102;28;20794;-64
2022/04/23 01:00:04;;;;;;;23.40;14.00;;;6.70;91.70;;;;;;5113125;27;20457;-63
2022/04/23 01:02:30;;;;;;;21.47;14.63;;;6.70;89.20;;;;;;5113348;28;20457;-67
2022/04/23 01:04:55;;;;;;;22.37;14.70;;;6.70;93.40;;;;;;5093803;28;20987;-66
2022/04/23 01:07:21;;;;;;;22.40;13.60;;;6.80;95.70;;;;;;5092361;28;20771;-63
2022/04/23 01:09:48;;;;;;;22.47;15.63;;;6.80;95.20;;;;;;5110209;28;20229;-64
2022/04/23 01:12:14;;;;;;;24.00;15.67;;;6.90;99.20;;;;;;5113876;28;20433;-65
2022/04/23 01:15:05;;;;;;;20.80;14.20;;;6.80;95.90;;;;;;5095917;28;20427;-67
2022/04/23 01:17:31;;;;;;;30.53;15.47;;;6.90;97.50;;;;;;5093016;28;20205;-63
2022/04/23 01:19:56;;;;;;;25.17;14.07;;;6.90;90.70;;;;;;5111442;28;20538;-64
2022/04/23 01:22:25;;;;;;;25.00;13.40;;;6.90;82.20;;;;;;5112404;28;20196;-67
2022/04/23 01:24:51;;;;;;;23.30;16.07;;;6.90;85.30;;;;;;5095447;28;20184;-65
2022/04/23 01:27:18;;;;;;;22.00;15.57;;;6.90;80.10;;;;;;5093381;28;20806;-65
2022/04/23 01:29:44;;;;;;;19.93;14.57;;;6.80;93.00;;;;;;5108718;28;20800;-69
2022/04/23 01:32:10;;;;;;;25.07;16.10;;;6.80;94.10;;;;;;5113163;28;20795;-66
2022/04/23 01:34:36;;;;;;;25.00;14.90;;;6.70;90.80;;;;;;5098334;28;20514;-66
2022/04/23 01:37:02;;;;;;;22.90;14.83;;;6.80;90.30;;;;;;5093404;28;20916;-66
2022/04/23 01:39:28;;;;;;;27.23;15.73;;;6.70;91.20;;;;;;5104944;28;20767;-65
2022/04/23 01:41:54;;;;;;;24.43;16.30;;;6.60;92.40;;;;;;5113437;28;20234;-64
2022/04/23 01:44:20;;;;;;;26.70;16.40;;;6.60;92.20;;;;;;5096904;28;20412;-63
2022/04/23 01:46:45;;;;;;;27.47;16.27;;;6.50;93.00;;;;;;5093076;28;20532;-66
2022/04/23 01:49:11;;;;;;;25.53;15.33;;;6.50;95.40;;;;;;5103960;28;20189;-66
2022/04/23 01:51:36;;;;;;;34.47;16.60;;;6.50;96.70;;;;;;5113166;28;20659;-66
2022/04/23 01:54:02;;;;;;;32.13;16.43;;;6.50;96.90;;;;;;5101117;28;20200;-64
2022/04/23 01:56:28;;;;;;;27.20;15.80;;;6.40;99.90;;;;;;5091629;28;20204;-63
2022/04/23 01:58:53;;;;;;;23.33;14.00;;;6.40;98.10;;;;;;5098636;28;20197;-63
2022/04/23 02:01:19;;;;;;;18.40;13.60;;;6.40;98.40;;;;;;5098430;28;20177;-63
2022/04/23 02:03:48;;;;;;;27.00;16.43;;;6.30;99.90;;;;;;5092906;28;20305;-64
2022/04/23 02:06:14;;;;;;;21.50;13.97;;;6.30;99.90;;;;;;5103621;28;20246;-64
2022/04/23 02:08:39;;;;;;;25.50;15.27;;;6.20;99.90;;;;;;5111774;28;20870;-65
2022/04/23 02:11:06;;;;;;;21.13;15.50;;;6.20;99.20;;;;;;5103630;28;20173;-66
2022/04/23 02:13:34;;;;;;;21.57;15.37;;;6.10;99.90;;;;;;5093044;28;20243;-64
2022/04/23 02:16:00;;;;;;;24.83;14.70;;;6.10;99.90;;;;;;5100389;28;20425;-63
2022/04/23 02:18:26;;;;;;;22.33;12.50;;;6.20;99.90;;;;;;5112888;28;20398;-64
2022/04/23 02:20:52;;;;;;;26.43;14.20;;;6.20;99.90;;;;;;5105950;28;20459;-63
2022/04/23 02:23:19;;;;;;;22.10;14.97;;;6.10;99.90;;;;;;5092627;28;20430;-66
2022/04/23 02:25:45;;;;;;;23.63;14.67;;;6.10;99.90;;;;;;5097264;28;20173;-66
2022/04/23 02:28:10;;;;;;;19.93;14.17;;;6.10;99.90;;;;;;5111473;28;20501;-63
2022/04/23 02:30:37;;;;;;;23.40;13.43;;;6.00;99.90;;;;;;5094860;28;20207;-66
2022/04/23 02:33:03;;;;;;;24.10;14.17;;;6.00;99.90;;;;;;5091325;28;20254;-66
2022/04/23 02:35:28;;;;;;;19.97;14.50;;;6.00;99.90;;;;;;5107705;28;20423;-63
2022/04/23 02:37:56;;;;;;;24.20;14.13;;;6.00;99.90;;;;;;5112813;28;20197;-66
2022/04/23 02:40:22;;;;;;;22.83;14.80;;;5.90;99.90;;;;;;5097999;28;20205;-65
2022/04/23 02:42:50;;;;;;;19.67;13.90;;;5.90;99.90;;;;;;5092474;28;20517;-66
2022/04/23 02:45:17;;;;;;;26.90;14.70;;;5.90;99.90;;;;;;5104152;28;20414;-66
2022/04/23 02:47:48;;;;;;;26.37;13.30;;;6.00;99.90;;;;;;5112562;28;20441;-66
2022/04/23 02:50:15;;;;;;;24.90;14.70;;;6.00;99.90;;;;;;5098949;28;20451;-67
2022/04/23 02:52:42;;;;;;;23.13;14.10;;;6.10;99.90;;;;;;5092267;28;20522;-64
2022/04/23 02:55:09;;;;;;;20.40;14.80;;;6.00;99.90;;;;;;5095512;28;20925;-63
2022/04/23 02:57:35;;;;;;;21.97;14.10;;;6.00;99.90;;;;;;5094310;28;20403;-63
2022/04/23 03:00:01;;;;;;;26.53;13.40;;;6.00;99.90;;;;;;5095178;28;20509;-63
2022/04/23 03:02:28;;;;;;;26.17;14.77;;;6.00;99.90;;;;;;5095979;28;20196;-64
2022/04/23 03:04:53;;;;;;;22.33;15.10;;;6.00;99.90;;;;;;5105834;28;20191;-65
2022/04/23 03:07:20;;;;;;;21.33;14.80;;;6.00;99.90;;;;;;5116339;28;20395;-63
2022/04/23 03:09:46;;;;;;;28.80;15.90;;;6.00;99.90;;;;;;5102028;28;20424;-64
2022/04/23 03:12:12;;;;;;;23.73;13.10;;;5.90;99.90;;;;;;5095994;28;20423;-66
2022/04/23 03:14:37;;;;;;;22.00;14.30;;;5.90;99.90;;;;;;5106807;28;20777;-63
2022/04/23 03:17:03;;;;;;;20.23;13.60;;;5.90;99.90;;;;;;5116140;28;20627;-65
2022/04/23 03:19:29;;;;;;;21.13;14.67;;;6.00;99.90;;;;;;5104294;28;20274;-66
2022/04/23 03:21:56;;;;;;;21.40;14.30;;;5.90;99.90;;;;;;5093985;28;20189;-67
2022/04/23 03:24:21;;;;;;;25.90;14.57;;;5.90;99.90;;;;;;5102956;28;20642;-65
2022/04/23 03:26:49;;;;;;;20.20;13.40;;;5.90;99.90;;;;;;5113358;28;20419;-64
2022/04/23 03:29:15;;;;;;;20.60;13.47;;;5.80;99.90;;;;;;5093577;28;20263;-63
2022/04/23 03:31:41;;;;;;;24.00;13.63;;;5.80;99.90;;;;;;5095781;28;20459;-67
2022/04/23 03:34:07;;;;;;;20.90;14.07;;;5.80;99.90;;;;;;5115842;28;20627;-63
2022/04/23 03:36:33;;;;;;;21.53;12.33;;;5.80;99.90;;;;;;5115797;28;20565;-66
2022/04/23 03:38:58;;;;;;;27.33;14.37;;;5.80;99.90;;;;;;5095110;28;20455;-63
2022/04/23 03:41:25;;;;;;;21.37;13.90;;;5.80;99.90;;;;;;5095231;28;20219;-64
2022/04/23 03:43:50;;;;;;;21.30;13.70;;;5.80;99.90;;;;;;5111675;28;20168;-66
2022/04/23 03:46:16;;;;;;;20.40;13.77;;;5.80;99.90;;;;;;5115769;27;20395;-63
2022/04/23 03:48:42;;;;;;;23.27;14.80;;;5.80;99.90;;;;;;5098502;28;20255;-66
2022/04/23 03:51:07;;;;;;;29.03;15.20;;;5.70;99.90;;;;;;5094985;28;20200;-63
2022/04/23 03:53:34;;;;;;;32.50;14.93;;;5.70;99.90;;;;;;5107819;28;20192;-64
2022/04/23 03:56:00;;;;;;;24.43;14.63;;;5.70;99.90;;;;;;5115389;28;20157;-67
2022/04/23 03:58:26;;;;;;;22.33;13.20;;;5.80;99.90;;;;;;5102491;28;20491;-67
2022/04/23 04:00:51;;;;;;;20.27;14.13;;;5.80;99.90;;;;;;5092296;28;20663;-67
2022/04/23 04:03:17;;;;;;;27.03;14.13;;;5.80;99.90;;;;;;5104955;28;20219;-64
2022/04/23 04:05:42;;;;;;;23.00;14.60;;;5.80;99.90;;;;;;5113372;28;20252;-66
2022/04/23 04:08:11;;;;;;;22.90;13.50;;;5.80;99.90;;;;;;5114438;28;20169;-63
2022/04/23 04:10:37;;;;;;;18.30;12.67;;;5.80;99.90;;;;;;5108639;28;20802;-66
2022/04/23 04:13:03;;;;;;;26.13;13.60;;;5.80;99.90;;;;;;5094589;28;20423;-65
2022/04/23 04:15:28;;;;;;;23.00;14.73;;;5.70;99.90;;;;;;5096384;28;20216;-63
2022/04/23 04:17:54;;;;;;;22.80;12.77;;;5.60;99.90;;;;;;5113892;28;20569;-63
2022/04/23 04:20:21;;;;;;;23.77;14.53;;;5.60;99.90;;;;;;5111871;28;20211;-64
2022/04/23 04:22:47;;;;;;;20.40;14.47;;;5.70;99.90;;;;;;5094131;28;20416;-67
2022/04/23 04:25:14;;;;;;;21.30;13.00;;;5.80;99.90;;;;;;5094306;28;20457;-67
2022/04/23 04:27:40;;;;;;;22.10;13.80;;;5.70;99.90;;;;;;5094415;28;20465;-66
2022/04/23 04:30:08;;;;;;;22.40;13.30;;;5.70;99.90;;;;;;5107909;28;20950;-67
2022/04/23 04:32:34;;;;;;;15.47;11.90;;;5.80;99.90;;;;;;5114507;28;20476;-64
2022/04/23 04:35:00;;;;;;;24.93;13.83;;;5.80;99.90;;;;;;5100029;28;20424;-66
2022/04/23 04:37:27;;;;;;;18.13;13.07;;;5.80;99.90;;;;;;5093687;28;20188;-68
2022/04/23 04:39:53;;;;;;;16.33;10.70;;;5.90;99.90;;;;;;5104462;28;20192;-63
2022/04/23 04:42:19;;;;;;;25.77;12.97;;;5.90;99.90;;;;;;5114552;28;20480;-64
2022/04/23 04:44:44;;;;;;;14.20;11.50;;;6.00;99.90;;;;;;5104218;28;20261;-66
2022/04/23 04:47:11;;;;;;;20.70;13.00;;;5.90;99.90;;;;;;5093975;28;20245;-66
2022/04/23 04:49:37;;;;;;;23.27;11.30;;;6.00;99.90;;;;;;5101102;28;20169;-64
2022/04/23 04:52:03;;;;;;;17.00;12.00;;;6.00;99.90;;;;;;5114231;28;20419;-63
2022/04/23 04:54:29;;;;;;;16.67;12.13;;;6.10;99.90;;;;;;5107256;28;20523;-67
2022/04/23 04:56:59;;;;;;;20.67;13.50;;;6.20;99.90;;;;;;5092408;28;20502;-66
2022/04/23 04:59:24;;;;;;;14.50;11.07;;;6.20;99.90;;;;;;5097935;28;20207;-64
2022/04/23 05:01:51;;;;;;;16.50;11.97;;;6.20;99.90;;;;;;5113950;27;20411;-64
2022/04/23 05:04:17;;;;;;;17.10;13.60;;;6.20;99.90;;;;;;5110025;28;21227;-66
2022/04/23 05:06:43;;;;;;;17.80;12.80;;;6.20;99.90;;;;;;5092397;28;20970;-63
2022/04/23 05:09:09;;;;;;;16.47;12.70;;;6.30;99.90;;;;;;5094713;28;20404;-63
2022/04/23 05:11:35;;;;;;;19.90;12.33;;;6.40;99.90;;;;;;5113920;28;20172;-66
2022/04/23 05:14:00;;;;;;;17.03;12.20;;;6.40;99.90;;;;;;5113200;27;20225;-64
2022/04/23 05:16:26;;;;;;;16.40;11.07;;;6.50;99.90;;;;;;5092954;28;20408;-66
2022/04/23 05:18:52;;;;;;;20.17;12.00;;;6.50;99.90;;;;;;5093531;28;20881;-67
2022/04/23 05:21:17;;;;;;;18.40;11.30;;;6.50;99.90;;;;;;5093865;28;20227;-64
2022/04/23 05:23:43;;;;;;;31.80;13.37;;;6.50;99.90;;;;;;5093502;28;20170;-68
2022/04/23 05:26:09;;;;;;;19.80;12.47;;;6.50;99.90;;;;;;5093446;28;20168;-67
2022/04/23 05:28:35;;;;;;;17.33;12.70;;;6.50;99.90;;;;;;5092438;28;20203;-67
2022/04/23 05:31:01;;;;;;;19.77;13.07;;;6.60;99.90;;;;;;5112597;28;20429;-65
2022/04/23 05:33:27;;;;;;;21.40;13.37;;;6.60;99.90;;;;;;5112182;28;20422;-64
2022/04/23 05:35:53;;;;;;;16.90;12.37;;;6.70;99.90;;;;;;5092727;28;20743;-68
2022/04/23 05:38:20;;;;;;;23.10;13.43;;;6.80;99.90;;;;;;5092947;28;20632;-63
2022/04/23 05:40:46;;;;;;;17.20;12.77;;;6.80;99.90;;;;;;5092441;28;20208;-64
2022/04/23 05:43:12;;;;;;;24.03;13.97;;;6.90;99.90;;;;;;5092961;28;20740;-67
2022/04/23 05:45:37;;;;;;;20.97;13.80;;;7.00;99.90;;;;;;5111281;28;20422;-63
2022/04/23 05:48:03;;;;;;;25.53;12.27;;;7.00;99.90;;;;;;5112353;28;20175;-64
2022/04/23 05:50:29;;;;;;;19.50;11.97;;;7.10;99.90;;;;;;5112449;28;20174;-64
2022/04/23 05:52:55;;;;;;;19.27;11.63;;;7.10;99.90;;;;;;5113380;28;20423;-66
2022/04/23 05:55:21;;;;;;;21.60;12.70;;;7.20;99.90;;;;;;5112665;28;20169;-67
2022/04/23 05:57:47;;;;;;;21.33;11.33;;;7.30;99.90;;;;;;5113338;28;20494;-65
2022/04/23 06:00:13;;;;;;;21.47;12.73;;;7.30;99.90;;;;;;5112313;28;20192;-67
2022/04/23 06:02:40;;;;;;;23.30;13.60;;;7.40;99.90;;;;;;5113120;28;20518;-66
2022/04/23 06:05:06;;;;;;;20.90;12.40;;;7.40;99.90;;;;;;5113135;28;20427;-66
2022/04/23 06:07:32;;;;;;;18.37;10.80;;;7.50;99.90;;;;;;5113304;28;20406;-66
2022/04/23 06:09:58;;;;;;;18.83;10.97;;;7.50;99.90;;;;;;5112299;28;20494;-66
2022/04/23 06:12:24;;;;;;;22.70;11.90;;;7.60;99.90;;;;;;5112286;28;20502;-69
2022/04/23 06:14:49;;;;;;;18.60;11.63;;;7.70;99.90;;;;;;5112964;28;20161;-64
2022/04/23 06:17:15;;;;;;;22.53;11.57;;;7.80;99.90;;;;;;5111187;28;20177;-66
2022/04/23 06:19:42;;;;;;;20.43;11.27;;;7.80;99.90;;;;;;5111490;28;20197;-68
2022/04/23 06:22:08;;;;;;;20.20;11.90;;;7.80;99.90;;;;;;5112253;28;20189;-67
2022/04/23 06:24:34;;;;;;;16.87;12.13;;;7.90;99.90;;;;;;5112915;28;20402;-64
2022/04/23 06:27:00;;;;;;;19.97;11.17;;;8.00;99.90;;;;;;5111243;28;20159;-64
2022/04/23 06:29:26;;;;;;;14.87;11.93;;;8.10;99.90;;;;;;5112170;28;20433;-68
2022/04/23 06:31:52;;;;;;;21.97;11.90;;;8.10;99.90;;;;;;5110565;28;20422;-65
2022/04/23 06:34:18;;;;;;;15.80;10.67;;;8.20;99.90;;;;;;5096725;28;20405;-67
2022/04/23 06:36:44;;;;;;;13.30;10.40;;;8.30;99.90;;;;;;5096768;28;20170;-64
2022/04/23 06:39:09;;;;;;;17.47;10.30;;;8.40;99.90;;;;;;5115906;28;20450;-68
2022/04/23 06:41:35;;;;;;;14.93;10.17;;;8.40;99.90;;;;;;5116783;28;20158;-66
2022/04/23 06:44:01;;;;;;;17.47;11.70;;;8.50;99.90;;;;;;5097266;28;20774;-67
2022/04/23 06:46:27;;;;;;;15.70;10.63;;;8.50;99.90;;;;;;5096243;28;20644;-65
2022/04/23 06:48:53;;;;;;;14.97;9.57;;;8.70;99.90;;;;;;5112297;28;20175;-65
2022/04/23 06:51:19;;;;;;;19.37;10.37;;;8.80;99.90;;;;;;5116614;28;20395;-65
2022/04/23 06:53:44;;;;;;;15.80;10.30;;;8.90;99.90;;;;;;5100628;28;20179;-66
2022/04/23 06:56:10;;;;;;;13.73;9.50;;;8.90;99.90;;;;;;5096233;28;20397;-67
2022/04/23 06:58:36;;;;;;;12.53;9.50;;;8.90;99.90;;;;;;5108968;28;20163;-68
2022/04/23 07:01:03;;;;;;;16.43;10.73;;;8.90;99.90;;;;;;5116416;28;20809;-66
2022/04/23 07:03:29;;;;;;;17.77;10.83;;;8.90;99.90;;;;;;5103674;28;20669;-65
2022/04/23 07:05:55;;;;;;;14.77;10.27;;;9.00;99.90;;;;;;5095734;28;20411;-67
2022/04/23 07:08:21;;;;;;;16.10;11.47;;;9.00;99.90;;;;;;5105792;28;20814;-71
2022/04/23 07:10:46;;;;;;;16.47;10.93;;;9.10;99.90;;;;;;5115347;28;20702;-67
2022/04/23 07:13:12;;;;;;;12.00;9.10;;;9.20;99.90;;;;;;5102958;28;20289;-67
2022/04/23 07:15:44;;;;;;;12.97;9.73;;;9.30;99.90;;;;;;5095921;28;20182;-67
2022/04/23 07:18:09;;;;;;;15.50;11.33;;;9.40;99.90;;;;;;5107514;28;20424;-68
2022/04/23 07:20:36;;;;;;;15.53;10.50;;;9.50;99.90;;;;;;5115068;28;20850;-65
2022/04/23 07:25:45;;;;;;;15.40;10.90;;;9.70;99.90;;;;;;5095764;28;20808;-65
2022/04/23 07:28:11;;;;;;;13.13;10.87;;;9.90;99.90;;;;;;5115975;28;20402;-67
2022/04/23 07:30:37;;;;;;;19.20;9.73;;;10.10;99.90;;;;;;5108330;28;20260;-65
2022/04/23 07:33:04;;;;;;;14.03;10.00;;;10.10;99.90;;;;;;5095387;28;20234;-67
2022/04/23 07:38:23;;;;;;;16.70;11.20;;;10.30;99.90;;;;;;5116259;28;20404;-64
2022/04/23 07:40:50;;;;;;;17.70;12.10;;;10.40;99.90;;;;;;5114907;28;20513;-63
2022/04/23 07:43:16;;;;;;;15.27;10.47;;;10.50;99.90;;;;;;5114669;27;20483;-67
2022/04/23 07:45:44;;;;;;;12.03;10.20;;;10.60;99.90;;;;;;5115638;28;20401;-63
2022/04/23 07:48:11;;;;;;;16.30;9.37;;;10.60;99.90;;;;;;5115525;27;20490;-63
2022/04/23 07:50:39;;;;;;;22.93;10.30;;;10.70;99.90;;;;;;5114500;28;20426;-63
2022/04/23 07:53:07;;;;;;;15.37;11.10;;;10.80;99.90;;;;;;5115240;28;20398;-65
2022/04/23 07:55:36;;;;;;;19.13;11.47;;;10.80;99.90;;;;;;5115549;28;20389;-63
2022/04/23 07:58:04;;;;;;;18.83;10.97;;;11.00;99.90;;;;;;5115484;28;20402;-66
2022/04/23 08:00:30;;;;;;;24.80;11.00;;;11.10;99.90;;;;;;5112604;28;20527;-63
2022/04/23 08:02:56;;;;;;;13.70;10.03;;;11.20;99.90;;;;;;5115217;28;20497;-64
2022/04/23 08:05:21;;;;;;;14.33;10.33;;;11.20;99.50;;;;;;5115089;28;20418;-63
2022/04/23 08:07:48;;;;;;;17.63;10.93;;;11.40;85.30;;;;;;5115065;28;20406;-66
2022/04/23 08:10:13;;;;;;;13.83;10.37;;;11.40;81.40;;;;;;5114278;28;20203;-66
2022/04/23 08:12:39;;;;;;;15.73;10.40;;;11.50;33.50;;;;;;5114880;28;20442;-63
2022/04/23 08:15:05;;;;;;;16.50;11.17;;;11.50;25.90;;;;;;5114926;28;20251;-68
2022/04/23 08:17:31;;;;;;;18.13;10.17;;;11.60;14.00;;;;;;5114939;28;20251;-64
2022/04/23 08:19:57;;;;;;;13.53;10.83;;;11.70;1.00;;;;;;5113489;28;20425;-67
2022/04/23 08:22:23;;;;;;;17.40;10.33;;;11.80;1.00;;;;;;5114576;28;20414;-64
2022/04/23 08:24:49;;;;;;;16.53;10.80;;;11.90;1.00;;;;;;5114886;28;20373;-66
2022/04/23 08:27:14;;;;;;;13.00;9.67;;;12.00;1.00;;;;;;5114643;28;20226;-65
2022/04/23 08:32:24;;;;;;;12.17;9.20;;;12.20;1.00;;;;;;5114637;28;20589;-66
2022/04/23 08:34:50;;;;;;;19.93;10.60;;;12.30;1.00;;;;;;5114705;28;20398;-66
2022/04/23 08:37:16;;;;;;;18.80;9.43;;;12.40;1.00;;;;;;5114474;28;20165;-63
2022/04/23 08:39:42;;;;;;;14.03;9.40;;;12.70;1.00;;;;;;5113301;28;20555;-64
2022/04/23 08:42:09;;;;;;;10.77;8.20;;;12.70;1.00;;;;;;5114085;28;20181;-66
2022/04/23 08:44:37;;;;;;;14.00;8.77;;;12.90;1.00;;;;;;5114305;28;20799;-63
2022/04/23 08:47:04;;;;;;;15.93;10.10;;;13.10;1.00;;;;;;5114428;27;20369;-65
2022/04/23 08:49:34;;;;;;;9.00;8.10;;;13.10;1.00;;;;;;5113447;28;20366;-63
2022/04/23 08:52:16;;;;;;;10.50;8.47;;;13.10;1.00;;;;;;5114254;28;20961;-64
2022/04/23 08:54:42;;;;;;;8.47;7.57;;;13.10;1.00;;;;;;5113531;28;20370;-66
2022/04/23 08:57:08;;;;;;;11.07;7.97;;;13.30;1.00;;;;;;5112873;28;20466;-67
2022/04/23 08:59:34;;;;;;;8.43;7.57;;;13.20;1.00;;;;;;5113041;28;20947;-66
2022/04/23 09:02:00;;;;;;;15.63;8.77;;;13.30;1.00;;;;;;5113558;27;20192;-63
2022/04/23 09:04:28;;;;;;;9.77;7.00;;;13.70;1.00;;;;;;5112638;28;20397;-65
2022/04/23 09:06:54;;;;;;;13.80;8.63;;;14.00;1.00;;;;;;5114149;28;20365;-64
2022/04/23 09:09:21;;;;;;;13.00;7.70;;;14.30;99.90;;;;;;5111097;28;20404;-61
2022/04/23 09:11:57;;;;;;;13.47;7.27;;;14.60;99.90;;;;;;5113697;28;20410;-64
2022/04/23 09:14:32;;;;;;;16.43;7.93;;;14.80;99.90;;;;;;5094612;28;20916;-63
2022/04/23 10:59:04;;;;;;;18.40;11.90;;;18.10;99.90;;;;;;5125295;27;20317;-62
2022/04/23 11:01:31;;;;;;;15.33;11.70;;;18.20;99.90;;;;;;5097274;28;20434;-62
2022/04/23 11:03:58;;;;;;;11.60;10.43;;;17.70;99.90;;;;;;5090620;28;21025;-65
2022/04/23 11:12:28;;;;;;;11.60;9.20;;;18.10;99.90;;;;;;5090119;28;20462;-62
2022/04/23 11:14:56;;;;;;;10.03;8.40;;;18.90;99.90;;;;;;5088281;28;20483;-65
2022/04/23 11:17:53;;;;;;;15.43;9.47;;;18.80;99.90;;;;;;5089934;28;20483;-64
2022/04/23 11:20:34;;;;;;;11.33;9.03;;;19.10;99.90;;;;;;5087916;28;20773;-62
2022/04/23 11:23:01;;;;;;;11.80;10.30;;;19.50;99.90;;;;;;5089912;28;20419;-62
2022/04/23 11:25:28;;;;;;;10.40;8.50;;;19.60;99.90;;;;;;5090107;28;20392;-62
2022/04/23 11:27:53;;;;;;;15.20;9.40;;;19.60;99.90;;;;;;5088680;28;20819;-65
2022/04/23 11:30:28;;;;;;;13.80;10.33;;;20.00;99.90;;;;;;5088774;28;20411;-62
2022/04/23 11:32:54;;;;;;;11.90;10.67;;;20.00;95.70;;;;;;5089561;28;20185;-62
2022/04/23 11:35:30;;;;;;;10.90;9.77;;;19.30;95.40;;;;;;5089587;28;20416;-62
2022/04/23 11:37:55;;;;;;;13.97;10.07;;;19.40;96.40;;;;;;5088543;28;20581;-65
2022/04/23 11:40:28;;;;;;;11.30;10.10;;;19.40;95.50;;;;;;5088780;28;20424;-65
2022/04/23 11:42:54;;;;;;;13.60;10.37;;;19.20;95.40;;;;;;5089618;28;20225;-61
2022/04/23 11:45:20;;;;;;;14.53;12.10;;;19.50;95.60;;;;;;5088238;28;20769;-66
2022/04/23 11:47:46;;;;;;;13.67;9.90;;;19.50;95.50;;;;;;5088647;28;20218;-62
2022/04/23 11:50:21;;;;;;;11.23;10.00;;;19.60;95.50;;;;;;5087894;28;20764;-62
2022/04/23 11:53:05;;;;;;;15.37;11.47;;;20.20;95.80;;;;;;5089520;28;20193;-63
2022/04/23 11:55:31;;;;;;;12.33;10.90;;;20.40;95.90;;;;;;5089304;28;20427;-62
2022/04/23 11:58:00;;;;;;;12.30;11.00;;;20.00;94.40;;;;;;5088238;28;20452;-62
2022/04/23 12:00:26;;;;;;;12.10;10.80;;;20.00;95.70;;;;;;5088360;28;20191;-66
2022/04/23 12:02:53;;;;;;;11.80;10.23;;;20.30;90.30;;;;;;5089266;28;20418;-66
2022/04/23 12:05:30;;;;;;;12.03;9.87;;;20.70;88.60;;;;;;5088777;28;20411;-63
2022/04/23 12:07:57;;;;;;;14.00;10.27;;;21.30;92.50;;;;;;5088560;28;20395;-64
2022/04/23 12:10:25;;;;;;;12.27;10.90;;;21.80;72.80;;;;;;5073170;28;20774;-66
2022/04/23 12:12:51;;;;;;;10.90;8.93;;;21.60;66.80;;;;;;5075514;28;20943;-65
2022/04/23 12:15:19;;;;;;;11.23;9.80;;;21.00;57.50;;;;;;5074001;28;20428;-65
2022/04/23 12:17:50;;;;;;;12.10;10.80;;;21.20;54.50;;;;;;5075722;28;20460;-66
2022/04/23 12:20:19;;;;;;;13.73;9.97;;;21.10;53.30;;;;;;5074501;28;20808;-66
2022/04/23 12:23:01;;;;;;;12.80;10.53;;;20.50;49.40;;;;;;5074199;28;20485;-65
2022/04/23 12:25:28;;;;;;;11.57;9.90;;;19.80;45.30;;;;;;5074301;28;20931;-65
2022/04/23 12:42:24;;;;;;;13.77;10.97;;;16.80;41.60;;;;;;5075320;28;20431;-62
2022/04/23 12:44:52;;;;;;;17.00;10.20;;;17.30;54.60;;;;;;5073360;28;20932;-62
2022/04/23 12:47:30;;;;;;;15.23;10.60;;;17.90;64.20;;;;;;5075070;28;20590;-66
2022/04/23 12:49:58;;;;;;;12.60;11.30;;;18.60;62.70;;;;;;5073843;28;20419;-66
2022/04/23 12:52:40;;;;;;;13.60;10.83;;;18.50;41.80;;;;;;5073608;28;20928;-63
2022/04/23 12:55:13;;;;;;;12.57;11.03;;;18.50;41.50;;;;;;5074603;28;20424;-62
2022/04/23 12:57:50;;;;;;;14.33;10.50;;;18.10;42.70;;;;;;5074710;28;20521;-65
2022/04/23 13:00:19;;;;;;;12.90;11.50;;;18.50;42.80;;;;;;5073743;28;20815;-65
2022/04/23 13:02:49;;;;;;;13.97;11.20;;;19.00;44.90;;;;;;5074191;28;20423;-66
2022/04/23 13:05:15;;;;;;;12.77;11.37;;;19.60;40.70;;;;;;5074513;28;20418;-67
2022/04/23 13:10:26;;;;;;;13.73;11.87;;;20.60;35.60;;;;;;5073898;28;20935;-62
2022/04/23 13:12:52;;;;;;;13.13;10.80;;;20.50;27.20;;;;;;5074591;28;20417;-65
2022/04/23 13:15:18;;;;;;;10.43;8.97;;;19.80;19.40;;;;;;5074211;28;20424;-62
2022/04/23 13:17:46;;;;;;;11.53;10.33;;;18.90;21.20;;;;;;5074471;28;20520;-65
2022/04/23 13:20:13;;;;;;;11.97;9.33;;;18.60;21.50;;;;;;5072621;28;20527;-62
2022/04/23 13:22:41;;;;;;;12.23;10.37;;;18.10;22.10;;;;;;5073492;28;20420;-65
2022/04/23 13:25:07;;;;;;;11.27;9.30;;;17.90;18.80;;;;;;5074258;28;20770;-65
2022/04/23 13:27:33;;;;;;;15.17;11.97;;;17.60;20.40;;;;;;5074061;28;20404;-64
2022/04/23 13:29:59;;;;;;;11.20;9.97;;;18.00;24.30;;;;;;5073007;28;20428;-63
2022/04/23 13:32:25;;;;;;;13.10;11.70;;;18.70;31.90;;;;;;5074262;28;20196;-63
2022/04/23 13:34:51;;;;;;;14.30;10.73;;;19.20;26.00;;;;;;5072357;28;20497;-64
2022/04/23 13:37:18;;;;;;;11.30;10.07;;;20.10;22.70;;;;;;5074008;28;20451;-63
2022/04/23 13:39:43;;;;;;;9.90;9.00;;;20.40;19.40;;;;;;5072828;28;20445;-62
2022/04/23 13:42:09;;;;;;;9.97;8.97;;;20.20;15.00;;;;;;5071134;28;20447;-65
2022/04/23 13:44:36;;;;;;;10.93;8.67;;;20.40;16.10;;;;;;5053885;28;20556;-62
2022/04/23 13:47:02;;;;;;;11.40;8.87;;;20.80;14.00;;;;;;5053619;28;20167;-67
2022/04/23 13:49:28;;;;;;;10.97;9.80;;;21.20;12.10;;;;;;5072688;28;20889;-62
2022/04/23 13:51:54;;;;;;;11.73;9.33;;;21.20;10.40;;;;;;5073309;28;20432;-64
2022/04/23 13:54:20;;;;;;;12.10;9.00;;;21.40;10.90;;;;;;5073884;28;20168;-62
2022/04/23 13:56:49;;;;;;;11.40;9.30;;;21.20;8.30;;;;;;5073215;28;20640;-62
2022/04/23 13:59:15;;;;;;;10.20;9.10;;;21.10;12.00;;;;;;5065992;28;20198;-63
2022/04/23 14:10:04;;;;;;;11.60;8.90;;;21.40;11.50;;;;;;5072851;28;20417;-62
2022/04/23 14:10:04;;;;;;;11.73;9.60;;;23.60;9.90;;;;;;5072198;28;20981;-62
2022/04/23 14:12:29;;;;;;;16.30;9.53;;;23.10;1.00;;;;;;5073483;28;20965;-65
2022/04/23 14:14:55;;;;;;;10.80;9.70;;;21.30;1.00;;;;;;5073157;28;20416;-65
2022/04/23 14:17:21;;;;;;;14.00;10.53;;;20.90;1.00;;;;;;5073366;28;20240;-61
2022/04/23 14:19:46;;;;;;;9.87;9.00;;;20.70;1.00;;;;;;5071755;28;20627;-67
2022/04/23 14:22:12;;;;;;;11.60;9.80;;;20.60;1.00;;;;;;5073079;28;20654;-62
2022/04/23 14:24:38;;;;;;;13.27;9.17;;;20.10;1.00;;;;;;5073074;28;20524;-65
2022/04/23 14:27:04;;;;;;;10.00;8.57;;;20.30;1.00;;;;;;5072068;28;20631;-65
2022/04/23 14:29:30;;;;;;;8.97;8.07;;;20.00;1.00;;;;;;5071137;28;20435;-61
2022/04/23 14:31:57;;;;;;;9.73;8.20;;;20.30;1.00;;;;;;5072873;28;20835;-62
2022/04/23 14:34:22;;;;;;;10.90;8.40;;;20.00;1.00;;;;;;5072678;28;20416;-64
2022/04/23 14:36:48;;;;;;;13.13;8.67;;;20.20;1.00;;;;;;5072979;28;20457;-62
2022/04/23 14:39:13;;;;;;;9.90;8.90;;;20.70;1.00;;;;;;5071229;28;20162;-65
2022/04/23 14:41:40;;;;;;;8.50;7.67;;;20.70;1.00;;;;;;5073005;28;20193;-64
2022/04/23 14:44:06;;;;;;;9.47;8.50;;;20.40;1.00;;;;;;5072618;28;20173;-66
2022/04/23 14:46:31;;;;;;;9.23;8.23;;;20.30;1.00;;;;;;5072888;28;20392;-64
2022/04/23 14:48:57;;;;;;;10.00;7.53;;;19.30;1.00;;;;;;5071700;28;20182;-64
2022/04/23 14:54:07;;;;;;;8.67;7.83;;;18.60;1.00;;;;;;5072860;28;20188;-62
2022/04/23 14:56:33;;;;;;;7.40;6.70;;;18.80;1.00;;;;;;5072798;28;20482;-64